Time;durP1;ratioP1;P1;durP2;ratioP2;P2;SDS_P1;SDS_P2;PMS_P1;PMS_P2;Temp;Humidity;BMP_temperature;BMP_pressure;BME280_temperature;BME280_humidity;BME280_pressure;Samples;Min_cycle;Max_cycle;Signal;HPM_P1;HPM_P2
2022/12/11 00:00:48;;;;;;;;;;;-0.30;99.90;;;;;;5056207;28;19959;-70
2022/12/11 00:03:14;;;;;;;;;;;-0.30;99.90;;;;;;5056709;28;20319;-69
2022/12/11 00:05:40;;;;;;;;;;;-0.30;99.90;;;;;;5056319;28;20304;-69
2022/12/11 00:08:06;;;;;;;;;;;-0.30;99.90;;;;;;5056055;28;19913;-69
2022/12/11 00:10:31;;;;;;;;;;;-0.30;99.90;;;;;;5055808;28;19956;-69
2022/12/11 00:12:57;;;;;;;;;;;-0.30;99.90;;;;;;5055983;28;20347;-69
2022/12/11 00:15:23;;;;;;;;;;;-0.30;99.90;;;;;;5055883;28;19908;-69
2022/12/11 00:17:48;;;;;;;;;;;-0.40;99.90;;;;;;5056140;28;19916;-69
2022/12/11 00:20:15;;;;;;;;;;;-0.40;99.90;;;;;;5055877;28;19919;-69
2022/12/11 00:22:40;;;;;;;;;;;-0.40;99.90;;;;;;5055787;28;19909;-69
2022/12/11 00:25:06;;;;;;;;;;;-0.30;99.90;;;;;;5055513;28;19912;-69
2022/12/11 00:27:31;;;;;;;;;;;-0.40;99.90;;;;;;5054491;28;20016;-69
2022/12/11 00:29:57;;;;;;;;;;;-0.40;99.90;;;;;;5056008;28;19960;-69
2022/12/11 00:32:22;;;;;;;;;;;-0.40;99.90;;;;;;5054417;28;19913;-69
2022/12/11 00:34:48;;;;;;;;;;;-0.40;99.90;;;;;;5055648;28;20335;-69
2022/12/11 00:37:13;;;;;;;;;;;-0.40;99.90;;;;;;5055426;28;20333;-69
2022/12/11 00:39:39;;;;;;;;;;;-0.40;99.90;;;;;;5055555;28;20293;-69
2022/12/11 00:42:05;;;;;;;;;;;-0.40;99.90;;;;;;5055450;28;19913;-69
2022/12/11 00:44:31;;;;;;;;;;;-0.40;99.90;;;;;;5054124;28;19919;-69
2022/12/11 00:46:56;;;;;;;;;;;-0.50;99.90;;;;;;5055195;28;19925;-69
2022/12/11 00:49:22;;;;;;;;;;;-0.50;99.90;;;;;;5055623;28;19917;-69
2022/12/11 00:51:47;;;;;;;;;;;-0.50;99.90;;;;;;5055160;28;20430;-69
2022/12/11 00:54:13;;;;;;;;;;;-0.50;99.90;;;;;;5054000;28;20365;-69
2022/12/11 00:56:38;;;;;;;;;;;-0.50;99.90;;;;;;5055102;28;19916;-69
2022/12/11 00:59:04;;;;;;;;;;;-0.50;99.90;;;;;;5055156;28;19955;-69
2022/12/11 01:01:29;;;;;;;;;;;-0.60;99.90;;;;;;5055087;28;19915;-69
2022/12/11 01:03:55;;;;;;;;;;;-0.60;99.90;;;;;;5055040;28;19956;-69
2022/12/11 01:06:22;;;;;;;;;;;-0.60;99.90;;;;;;5054988;28;19913;-69
2022/12/11 01:10:22;;;;;;;;;;;-0.60;99.90;;;;;;5054978;28;20395;-69
2022/12/11 01:11:33;;;;;;;;;;;-0.60;99.90;;;;;;5054783;28;19909;-69
2022/12/11 01:13:59;;;;;;;;;;;-0.60;99.90;;;;;;5054890;28;20441;-69
2022/12/11 01:16:24;;;;;;;;;;;-0.60;99.90;;;;;;5054639;28;19917;-69
2022/12/11 01:18:50;;;;;;;;;;;-0.60;99.90;;;;;;5054791;28;19968;-69
2022/12/11 01:21:15;;;;;;;;;;;-0.60;99.90;;;;;;5054696;28;19913;-69
2022/12/11 01:23:41;;;;;;;;;;;-0.60;99.90;;;;;;5054711;28;19919;-69
2022/12/11 01:26:07;;;;;;;;;;;-0.60;99.90;;;;;;5054595;28;19913;-69
2022/12/11 01:28:33;;;;;;;;;;;-0.60;99.90;;;;;;5054834;28;20369;-69
2022/12/11 01:30:59;;;;;;;;;;;-0.60;99.90;;;;;;5054597;28;19935;-69
2022/12/11 01:33:24;;;;;;;;;;;-0.60;99.90;;;;;;5054611;28;19974;-69
2022/12/11 01:35:50;;;;;;;;;;;-0.60;99.90;;;;;;5054478;28;19917;-69
2022/12/11 01:38:15;;;;;;;;;;;-0.60;99.90;;;;;;5054429;28;19962;-69
2022/12/11 01:40:48;;;;;;;;;;;-0.60;99.90;;;;;;5054385;28;19913;-69
2022/12/11 01:43:13;;;;;;;;;;;-0.60;99.90;;;;;;5054346;28;19909;-69
2022/12/11 01:45:43;;;;;;;;;;;-0.60;99.90;;;;;;5054211;28;19978;-69
2022/12/11 01:48:17;;;;;;;;;;;-0.60;99.90;;;;;;5054337;28;20391;-68
2022/12/11 01:50:46;;;;;;;;;;;-0.60;99.90;;;;;;5054269;28;19909;-69
2022/12/11 01:53:15;;;;;;;;;;;-0.60;99.90;;;;;;5054213;28;19916;-69
2022/12/11 01:55:41;;;;;;;;;;;-0.70;99.90;;;;;;5052808;28;19916;-69
2022/12/11 01:58:07;;;;;;;;;;;-0.70;99.90;;;;;;5054046;28;19921;-68
2022/12/11 02:00:32;;;;;;;;;;;-0.70;99.90;;;;;;5054089;28;19909;-68
2022/12/11 02:02:58;;;;;;;;;;;-0.70;99.90;;;;;;5052839;28;19921;-68
2022/12/11 02:05:24;;;;;;;;;;;-0.70;99.90;;;;;;5052094;28;19952;-69
2022/12/11 02:07:55;;;;;;;;;;;-0.80;99.90;;;;;;5053784;28;19920;-69
2022/12/11 02:10:23;;;;;;;;;;;-0.80;99.90;;;;;;5053700;28;19916;-69
2022/12/11 02:12:51;;;;;;;;;;;-0.80;99.90;;;;;;5052975;28;20395;-69
2022/12/11 02:15:16;;;;;;;;;;;-0.80;99.90;;;;;;5053286;28;19962;-69
2022/12/11 02:17:54;;;;;;;;;;;-0.90;99.90;;;;;;5053573;28;19912;-69
2022/12/11 02:20:26;;;;;;;;;;;-0.90;99.90;;;;;;5053602;28;19909;-68
2022/12/11 02:23:16;;;;;;;;;;;-0.90;99.90;;;;;;5053575;28;20319;-68
2022/12/11 02:25:56;;;;;;;;;;;-0.90;99.90;;;;;;5051451;28;19909;-69
2022/12/11 02:28:25;;;;;;;;;;;-0.90;99.90;;;;;;5053554;28;19948;-69
2022/12/11 02:30:58;;;;;;;;;;;-0.90;99.90;;;;;;5053492;28;19962;-69
2022/12/11 02:33:44;;;;;;;;;;;-0.90;99.90;;;;;;5047548;28;19983;-69
2022/12/11 02:36:10;;;;;;;;;;;-1.00;99.90;;;;;;5053084;28;19959;-69
2022/12/11 02:38:38;;;;;;;;;;;-0.90;99.90;;;;;;5052982;28;19913;-69
2022/12/11 02:41:04;;;;;;;;;;;-1.00;99.90;;;;;;5053005;28;19973;-68
2022/12/11 02:43:30;;;;;;;;;;;-1.00;99.90;;;;;;5053099;28;19913;-69
2022/12/11 02:45:56;;;;;;;;;;;-1.00;99.90;;;;;;5053514;28;19913;-69
2022/12/11 02:48:23;;;;;;;;;;;-1.00;99.90;;;;;;5053369;28;19979;-69
2022/12/11 02:50:51;;;;;;;;;;;-1.00;99.90;;;;;;5053822;28;19956;-69
2022/12/11 02:53:18;;;;;;;;;;;-0.90;99.90;;;;;;5053455;28;19958;-69
2022/12/11 02:55:44;;;;;;;;;;;-0.90;99.90;;;;;;5053405;28;19913;-69
2022/12/11 02:58:15;;;;;;;;;;;-0.90;99.90;;;;;;5053321;28;19912;-69
2022/12/11 03:00:40;;;;;;;;;;;-0.90;99.90;;;;;;5053469;28;19916;-69
2022/12/11 03:03:06;;;;;;;;;;;-0.90;99.90;;;;;;5053391;28;19909;-69
2022/12/11 03:05:32;;;;;;;;;;;-0.90;99.90;;;;;;5052199;28;20491;-69
2022/12/11 03:07:57;;;;;;;;;;;-0.80;99.90;;;;;;5053905;28;19917;-69
2022/12/11 03:10:23;;;;;;;;;;;-0.80;99.90;;;;;;5053666;28;20372;-69
2022/12/11 03:12:51;;;;;;;;;;;-0.80;99.90;;;;;;5053282;28;19955;-69
2022/12/11 03:15:18;;;;;;;;;;;-0.80;99.90;;;;;;5054678;28;19959;-69
2022/12/11 03:17:51;;;;;;;;;;;-0.80;99.90;;;;;;5056997;28;19917;-68
2022/12/11 03:20:36;;;;;;;;;;;-0.80;99.90;;;;;;5057411;28;19913;-69
2022/12/11 03:23:05;;;;;;;;;;;-0.80;99.90;;;;;;5055746;28;20008;-69
2022/12/11 03:25:39;;;;;;;;;;;-0.80;99.90;;;;;;5056876;28;19909;-69
2022/12/11 03:28:08;;;;;;;;;;;-0.80;99.90;;;;;;5056953;28;20273;-69
2022/12/11 03:30:35;;;;;;;;;;;-0.80;99.90;;;;;;5056857;28;19909;-69
2022/12/11 03:33:03;;;;;;;;;;;-0.70;99.90;;;;;;5056845;28;20404;-69
2022/12/11 03:35:33;;;;;;;;;;;-0.80;99.90;;;;;;5056691;28;19915;-69
2022/12/11 03:38:05;;;;;;;;;;;-0.80;99.90;;;;;;5056638;28;20373;-69
2022/12/11 03:40:32;;;;;;;;;;;-0.80;99.90;;;;;;5055428;28;19931;-69
2022/12/11 03:42:58;;;;;;;;;;;-0.80;99.90;;;;;;5056644;28;19956;-69
2022/12/11 03:45:24;;;;;;;;;;;-0.80;99.90;;;;;;5055223;28;20331;-69
2022/12/11 03:47:51;;;;;;;;;;;-0.80;99.90;;;;;;5056464;28;19916;-69
2022/12/11 03:50:17;;;;;;;;;;;-0.80;99.90;;;;;;5056547;28;19964;-69
2022/12/11 03:52:44;;;;;;;;;;;-0.80;99.90;;;;;;5056438;28;20007;-69
2022/12/11 03:55:11;;;;;;;;;;;-0.80;99.90;;;;;;5056383;28;20387;-69
2022/12/11 03:57:37;;;;;;;;;;;-0.80;99.90;;;;;;5056558;28;19917;-69
2022/12/11 04:00:04;;;;;;;;;;;-0.80;99.90;;;;;;5056303;28;19915;-69
2022/12/11 04:02:30;;;;;;;;;;;-0.90;99.90;;;;;;5056280;28;19913;-68
2022/12/11 04:04:55;;;;;;;;;;;-0.90;99.90;;;;;;5055041;28;19967;-68
2022/12/11 04:07:21;;;;;;;;;;;-1.00;99.90;;;;;;5056131;28;19916;-69
2022/12/11 04:09:46;;;;;;;;;;;-1.00;99.90;;;;;;5056502;28;20008;-68
2022/12/11 04:12:12;;;;;;;;;;;-1.00;99.90;;;;;;5056490;28;20315;-68
2022/12/11 04:25:34;;;;;;;;;;;-1.10;99.90;;;;;;5055979;28;19920;-68
2022/12/11 04:28:00;;;;;;;;;;;-1.10;99.90;;;;;;5054515;28;19999;-69
2022/12/11 04:30:25;;;;;;;;;;;-1.10;99.90;;;;;;5055749;28;19994;-69
2022/12/11 04:32:52;;;;;;;;;;;-1.10;99.90;;;;;;5055663;28;19913;-69
2022/12/11 04:35:17;;;;;;;;;;;-1.10;99.90;;;;;;5055595;28;19920;-69
2022/12/11 04:37:43;;;;;;;;;;;-1.10;99.90;;;;;;5054255;28;19917;-68
2022/12/11 04:40:11;;;;;;;;;;;-1.10;99.90;;;;;;5055549;28;19912;-68
2022/12/11 04:42:36;;;;;;;;;;;-1.10;99.90;;;;;;5055553;28;19915;-69
2022/12/11 04:45:03;;;;;;;;;;;-1.20;99.90;;;;;;5055417;28;19913;-69
2022/12/11 04:47:29;;;;;;;;;;;-1.20;99.90;;;;;;5054044;28;19917;-69
2022/12/11 04:49:54;;;;;;;;;;;-1.20;99.90;;;;;;5055660;28;19920;-69
2022/12/11 04:52:20;;;;;;;;;;;-1.10;99.90;;;;;;5055318;28;19966;-68
2022/12/11 04:54:45;;;;;;;;;;;-1.20;99.90;;;;;;5054892;28;19936;-68
2022/12/11 04:57:11;;;;;;;;;;;-1.20;99.90;;;;;;5055095;28;20003;-68
2022/12/11 04:59:37;;;;;;;;;;;-1.20;99.90;;;;;;5055456;28;20515;-69
2022/12/11 05:02:03;;;;;;;;;;;-1.20;99.90;;;;;;5055422;28;19909;-69
2022/12/11 05:04:32;;;;;;;;;;;-1.20;99.90;;;;;;5053860;28;19913;-69
2022/12/11 05:06:58;;;;;;;;;;;-1.20;99.90;;;;;;5054977;28;20458;-69
2022/12/11 05:09:25;;;;;;;;;;;-1.20;99.90;;;;;;5055065;28;19916;-69
2022/12/11 05:11:51;;;;;;;;;;;-1.20;99.90;;;;;;5054972;28;19913;-69
2022/12/11 05:14:16;;;;;;;;;;;-1.20;99.90;;;;;;5055231;28;19944;-69
2022/12/11 05:16:42;;;;;;;;;;;-1.20;99.90;;;;;;5054747;28;19964;-69
2022/12/11 05:19:08;;;;;;;;;;;-1.30;99.90;;;;;;5054807;28;20008;-69
2022/12/11 05:21:33;;;;;;;;;;;-1.30;99.90;;;;;;5054785;28;19974;-69
2022/12/11 05:23:59;;;;;;;;;;;-1.30;99.90;;;;;;5054539;28;19909;-69
2022/12/11 05:26:24;;;;;;;;;;;-1.30;99.90;;;;;;5053406;28;19922;-69
2022/12/11 05:28:52;;;;;;;;;;;-1.30;99.90;;;;;;5054926;28;19908;-69
2022/12/11 05:31:18;;;;;;;;;;;-1.30;99.90;;;;;;5053331;28;19971;-68
2022/12/11 05:33:44;;;;;;;;;;;-1.20;99.90;;;;;;5053250;28;20003;-69
2022/12/11 05:36:15;;;;;;;;;;;-1.20;99.90;;;;;;5054366;28;19909;-69
2022/12/11 05:38:41;;;;;;;;;;;-1.20;99.90;;;;;;5053708;28;19954;-69
2022/12/11 05:41:06;;;;;;;;;;;-1.20;99.90;;;;;;5054722;28;19913;-68
2022/12/11 05:43:33;;;;;;;;;;;-1.10;99.90;;;;;;5054345;28;19913;-69
2022/12/11 05:46:05;;;;;;;;;;;-1.10;99.90;;;;;;5054239;28;19916;-69
2022/12/11 05:48:31;;;;;;;;;;;-1.10;99.90;;;;;;5054216;28;19921;-69
2022/12/11 05:50:57;;;;;;;;;;;-1.10;99.90;;;;;;5054568;28;19924;-69
2022/12/11 05:53:23;;;;;;;;;;;-1.10;99.90;;;;;;5054508;28;19917;-68
2022/12/11 05:55:48;;;;;;;;;;;-1.10;99.90;;;;;;5054158;28;20280;-69
2022/12/11 05:58:14;;;;;;;;;;;-1.20;99.90;;;;;;5052776;28;20387;-68
2022/12/11 06:00:42;;;;;;;;;;;-1.10;99.90;;;;;;5054060;28;19917;-68
2022/12/11 06:03:08;;;;;;;;;;;-1.10;99.90;;;;;;5052794;28;19913;-69
2022/12/11 06:05:37;;;;;;;;;;;-1.10;99.90;;;;;;5054684;28;19919;-68
2022/12/11 06:08:02;;;;;;;;;;;-1.20;99.90;;;;;;5054003;28;19916;-68
2022/12/11 06:10:28;;;;;;;;;;;-1.20;99.90;;;;;;5052713;28;20285;-68
2022/12/11 06:12:53;;;;;;;;;;;-1.20;99.90;;;;;;5053943;28;20008;-68
2022/12/11 06:15:19;;;;;;;;;;;-1.30;99.90;;;;;;5053840;28;19920;-69
2022/12/11 06:17:44;;;;;;;;;;;-1.30;99.90;;;;;;5053808;28;19917;-68
2022/12/11 06:20:10;;;;;;;;;;;-1.40;99.90;;;;;;5053829;28;19913;-68
2022/12/11 06:22:36;;;;;;;;;;;-1.40;99.90;;;;;;5052593;28;19920;-68
2022/12/11 06:25:01;;;;;;;;;;;-1.40;99.90;;;;;;5053707;28;19936;-68
2022/12/11 06:27:27;;;;;;;;;;;-1.50;99.90;;;;;;5053679;28;19919;-68
2022/12/11 06:29:52;;;;;;;;;;;-1.50;99.90;;;;;;5053707;28;19912;-68
2022/12/11 06:32:18;;;;;;;;;;;-1.50;99.90;;;;;;5053987;28;19917;-68
2022/12/11 06:34:43;;;;;;;;;;;-1.50;99.90;;;;;;5054032;28;19917;-68
2022/12/11 06:37:09;;;;;;;;;;;-1.50;99.90;;;;;;5052460;28;19917;-68
2022/12/11 06:39:34;;;;;;;;;;;-1.50;99.90;;;;;;5053666;28;19935;-68
2022/12/11 06:42:00;;;;;;;;;;;-1.50;99.90;;;;;;5041859;28;19913;-70
2022/12/11 06:44:25;;;;;;;;;;;-1.60;99.90;;;;;;4954149;28;19929;-68
2022/12/11 06:46:51;;;;;;;;;;;-1.60;99.90;;;;;;5028188;28;19916;-68
2022/12/11 06:49:16;;;;;;;;;;;-1.60;99.90;;;;;;5034956;28;19964;-68
2022/12/11 06:51:42;;;;;;;;;;;-1.60;99.90;;;;;;5037733;28;19913;-68
2022/12/11 06:54:08;;;;;;;;;;;-1.70;99.90;;;;;;5036978;28;20297;-68
2022/12/11 06:56:33;;;;;;;;;;;-1.70;99.90;;;;;;5037295;28;20284;-68
2022/12/11 06:58:59;;;;;;;;;;;-1.70;99.90;;;;;;5037436;28;19909;-68
2022/12/11 07:01:26;;;;;;;;;;;-1.70;99.90;;;;;;5037241;28;19913;-68
2022/12/11 07:03:56;;;;;;;;;;;-1.70;99.90;;;;;;5036130;28;19916;-68
2022/12/11 07:06:22;;;;;;;;;;;-1.70;99.90;;;;;;5037187;28;20288;-68
2022/12/11 07:08:47;;;;;;;;;;;-1.60;99.90;;;;;;5037400;28;20000;-68
2022/12/11 07:11:14;;;;;;;;;;;-1.60;99.90;;;;;;5036557;28;19914;-68
2022/12/11 07:13:41;;;;;;;;;;;-1.60;99.90;;;;;;5032637;28;19917;-68
2022/12/11 07:16:09;;;;;;;;;;;-1.60;99.90;;;;;;5017205;28;19964;-68
2022/12/11 07:18:42;;;;;;;;;;;-1.60;99.90;;;;;;5017266;28;19909;-68
2022/12/11 07:21:09;;;;;;;;;;;-1.60;99.90;;;;;;5017304;28;19976;-68
2022/12/11 07:23:34;;;;;;;;;;;-1.60;99.90;;;;;;5015881;28;19949;-68
2022/12/11 07:26:07;;;;;;;;;;;-1.60;99.90;;;;;;5017080;28;19909;-68
2022/12/11 07:28:34;;;;;;;;;;;-1.60;99.90;;;;;;5017225;28;19916;-68
2022/12/11 07:31:03;;;;;;;;;;;-1.70;99.90;;;;;;5017143;28;19913;-68
2022/12/11 07:33:29;;;;;;;;;;;-1.70;99.90;;;;;;5015407;28;19949;-68
2022/12/11 07:35:54;;;;;;;;;;;-1.70;99.90;;;;;;4947790;28;20493;-68
2022/12/11 07:38:20;;;;;;;;;;;-1.70;99.90;;;;;;5015987;28;19918;-68
2022/12/11 07:40:46;;;;;;;;;;;-1.70;99.90;;;;;;5017289;28;19960;-68
2022/12/11 07:43:11;;;;;;;;;;;-1.70;99.90;;;;;;5016636;28;20397;-68
2022/12/11 07:45:37;;;;;;;;;;;-1.70;99.90;;;;;;5017082;28;19924;-68
2022/12/11 07:48:02;;;;;;;;;;;-1.70;99.90;;;;;;5016888;28;19925;-68
2022/12/11 07:50:28;;;;;;;;;;;-1.70;99.90;;;;;;5015515;28;19921;-66
2022/12/11 07:52:53;;;;;;;;;;;-1.60;99.90;;;;;;5016754;28;19960;-67
2022/12/11 07:55:19;;;;;;;;;;;-1.60;99.90;;;;;;5015332;28;19920;-68
2022/12/11 07:57:44;;;;;;;;;;;-1.70;99.90;;;;;;5015288;28;19925;-68
2022/12/11 08:00:10;;;;;;;;;;;-1.70;99.90;;;;;;5016059;28;20369;-68
2022/12/11 08:02:36;;;;;;;;;;;-1.80;99.90;;;;;;5016247;28;19981;-68
2022/12/11 08:05:02;;;;;;;;;;;-1.80;99.90;;;;;;5016736;28;19916;-67
2022/12/11 08:07:27;;;;;;;;;;;-1.80;99.90;;;;;;5015262;28;19920;-68
2022/12/11 08:09:53;;;;;;;;;;;-1.80;99.90;;;;;;5016423;28;20320;-68
2022/12/11 08:12:18;;;;;;;;;;;-1.80;99.90;;;;;;5016736;28;20408;-68
2022/12/11 08:14:44;;;;;;;;;;;-1.80;99.90;;;;;;5016292;28;19909;-68
2022/12/11 08:17:10;;;;;;;;;;;-1.70;99.90;;;;;;5014940;28;19925;-68
2022/12/11 08:19:35;;;;;;;;;;;-1.70;99.90;;;;;;5015749;28;19918;-67
2022/12/11 08:22:01;;;;;;;;;;;-1.70;99.90;;;;;;5016252;28;19920;-68
2022/12/11 08:24:26;;;;;;;;;;;-1.70;99.90;;;;;;5016421;28;19920;-68
2022/12/11 08:26:52;;;;;;;;;;;-1.70;99.90;;;;;;5016146;28;19952;-68
2022/12/11 08:29:17;;;;;;;;;;;-1.60;99.90;;;;;;5016099;28;20305;-68
2022/12/11 08:31:43;;;;;;;;;;;-1.70;99.90;;;;;;5016082;28;19923;-68
2022/12/11 08:34:12;;;;;;;;;;;-1.60;99.90;;;;;;5015945;28;19996;-68
2022/12/11 08:36:38;;;;;;;;;;;-1.60;99.90;;;;;;5015916;28;19925;-68
2022/12/11 08:39:03;;;;;;;;;;;-1.60;99.90;;;;;;5015884;28;19910;-68
2022/12/11 08:41:29;;;;;;;;;;;-1.60;99.90;;;;;;5015784;28;19919;-68
2022/12/11 08:43:56;;;;;;;;;;;-1.60;99.90;;;;;;5015999;28;20004;-68
2022/12/11 08:46:25;;;;;;;;;;;-1.60;99.90;;;;;;5015764;28;19921;-68
2022/12/11 08:48:52;;;;;;;;;;;-1.60;99.90;;;;;;5014306;28;19922;-68
2022/12/11 08:51:19;;;;;;;;;;;-1.60;99.90;;;;;;5015882;28;20390;-68
2022/12/11 08:53:45;;;;;;;;;;;-1.60;99.90;;;;;;5015542;28;19964;-68
2022/12/11 08:56:20;;;;;;;;;;;-1.60;99.90;;;;;;5015511;28;19913;-68
2022/12/11 08:58:46;;;;;;;;;;;-1.50;99.90;;;;;;5015575;28;20003;-68
2022/12/11 09:01:13;;;;;;;;;;;-1.50;99.90;;;;;;5015503;28;19909;-67
2022/12/11 09:03:39;;;;;;;;;;;-1.50;99.90;;;;;;5015390;28;20281;-68
2022/12/11 09:06:06;;;;;;;;;;;-1.40;99.90;;;;;;5014012;28;19910;-68
2022/12/11 09:08:33;;;;;;;;;;;-1.40;99.90;;;;;;5015299;28;19910;-68
2022/12/11 09:11:06;;;;;;;;;;;-1.40;99.90;;;;;;5015286;28;19910;-68
2022/12/11 09:13:32;;;;;;;;;;;-1.40;99.90;;;;;;5015278;28;19960;-67
2022/12/11 09:15:58;;;;;;;;;;;-1.30;99.90;;;;;;5015358;28;19913;-68
2022/12/11 09:18:23;;;;;;;;;;;-1.30;99.90;;;;;;5015036;28;19961;-68
2022/12/11 09:20:56;;;;;;;;;;;-1.20;99.90;;;;;;5015098;28;19952;-68
2022/12/11 09:23:22;;;;;;;;;;;-1.20;99.90;;;;;;5015299;28;19917;-67
2022/12/11 09:25:47;;;;;;;;;;;-1.20;99.90;;;;;;5015065;28;20324;-68
2022/12/11 09:28:13;;;;;;;;;;;-1.10;99.90;;;;;;5014900;28;20370;-68
2022/12/11 09:30:39;;;;;;;;;;;-1.10;99.90;;;;;;5014867;28;19922;-67
2022/12/11 09:33:04;;;;;;;;;;;-1.10;99.90;;;;;;5015021;28;20292;-68
2022/12/11 09:35:30;;;;;;;;;;;-1.10;99.90;;;;;;5030494;28;20389;-67
2022/12/11 09:37:55;;;;;;;;;;;-1.20;99.90;;;;;;5033076;28;20311;-67
2022/12/11 09:40:21;;;;;;;;;;;-1.20;99.90;;;;;;5026816;28;20308;-67
2022/12/11 09:43:05;;;;;;;;;;;-1.20;99.90;;;;;;5034346;28;20435;-67
2022/12/11 09:45:31;;;;;;;;;;;-1.20;99.90;;;;;;5033418;28;19916;-68
2022/12/11 09:47:59;;;;;;;;;;;-1.20;99.90;;;;;;5034321;28;19920;-68
2022/12/11 09:50:27;;;;;;;;;;;-1.20;99.90;;;;;;5033332;28;20537;-68
2022/12/11 09:53:02;;;;;;;;;;;-1.10;99.90;;;;;;5034417;28;20385;-68
2022/12/11 09:55:48;;;;;;;;;;;-1.10;99.90;;;;;;5034161;28;19913;-68
2022/12/11 09:58:26;;;;;;;;;;;-1.00;99.90;;;;;;5034508;28;19913;-68
2022/12/11 10:01:17;;;;;;;;;;;-1.00;99.90;;;;;;5032955;28;19909;-68
2022/12/11 10:03:58;;;;;;;;;;;-1.00;99.90;;;;;;5031120;28;19909;-68
2022/12/11 10:06:24;;;;;;;;;;;-0.90;99.90;;;;;;5034087;28;19909;-68
2022/12/11 10:08:49;;;;;;;;;;;-0.80;99.90;;;;;;5034064;28;20006;-68
2022/12/11 10:11:28;;;;;;;;;;;-0.80;99.90;;;;;;5033993;28;19909;-68
2022/12/11 10:14:19;;;;;;;;;;;-0.80;99.90;;;;;;5034175;28;19909;-68
2022/12/11 10:16:47;;;;;;;;;;;-0.80;99.90;;;;;;5035578;28;20261;-68
2022/12/11 10:19:20;;;;;;;;;;;-0.80;99.90;;;;;;5066422;28;20004;-68
2022/12/11 10:21:48;;;;;;;;;;;-0.70;99.90;;;;;;5033890;28;19938;-68
2022/12/11 10:24:20;;;;;;;;;;;-0.60;99.90;;;;;;5033892;28;19909;-68
2022/12/11 10:26:46;;;;;;;;;;;-0.50;99.90;;;;;;5033996;28;19909;-68
2022/12/11 10:29:13;;;;;;;;;;;-0.40;99.90;;;;;;5033811;28;19919;-68
2022/12/11 10:32:05;;;;;;;;;;;-0.40;99.90;;;;;;5034090;28;19960;-68
2022/12/11 10:34:35;;;;;;;;;;;-0.40;99.90;;;;;;5032482;28;19915;-68
2022/12/11 10:37:01;;;;;;;;;;;-0.50;99.90;;;;;;5033638;28;19919;-68
2022/12/11 10:39:26;;;;;;;;;;;-0.50;99.90;;;;;;5066015;28;20004;-66
2022/12/11 10:41:53;;;;;;;;;;;-0.50;99.90;;;;;;5033608;28;19913;-68
2022/12/11 10:44:26;;;;;;;;;;;-0.50;99.90;;;;;;5033939;28;19914;-67
2022/12/11 10:47:11;;;;;;;;;;;-0.60;99.90;;;;;;5033505;28;19970;-67
2022/12/11 10:49:38;;;;;;;;;;;-0.60;99.90;;;;;;5033846;28;19995;-68
2022/12/11 10:52:11;;;;;;;;;;;-0.70;99.90;;;;;;5065736;28;19932;-68
2022/12/11 10:54:39;;;;;;;;;;;-0.70;99.90;;;;;;5032233;28;19909;-68
2022/12/11 10:57:07;;;;;;;;;;;-0.70;99.90;;;;;;5033342;28;19921;-67
2022/12/11 10:59:35;;;;;;;;;;;-0.60;99.90;;;;;;5032241;28;19916;-68
2022/12/11 11:02:01;;;;;;;;;;;-0.60;99.90;;;;;;5033450;28;19909;-68
2022/12/11 11:04:30;;;;;;;;;;;-0.60;99.90;;;;;;5033440;28;20300;-68
2022/12/11 11:07:12;;;;;;;;;;;-0.60;99.90;;;;;;5033540;28;20006;-68
2022/12/11 11:09:38;;;;;;;;;;;-0.70;99.90;;;;;;5033781;28;19913;-68
2022/12/11 11:12:15;;;;;;;;;;;-0.70;99.90;;;;;;5034223;28;19914;-68
2022/12/11 11:14:41;;;;;;;;;;;-0.80;99.90;;;;;;5034433;28;19909;-67
2022/12/11 11:17:12;;;;;;;;;;;-0.70;99.90;;;;;;5033749;28;20258;-67
2022/12/11 11:19:38;;;;;;;;;;;-0.70;99.90;;;;;;5033506;28;19935;-68
2022/12/11 11:22:05;;;;;;;;;;;-0.70;99.90;;;;;;5029814;28;19977;-68
2022/12/11 11:24:34;;;;;;;;;;;-0.70;99.90;;;;;;5029906;28;19960;-68
2022/12/11 11:27:00;;;;;;;;;;;-0.70;99.90;;;;;;5032859;28;19917;-68
2022/12/11 11:29:33;;;;;;;;;;;-0.60;99.90;;;;;;5030814;28;19921;-68
2022/12/11 11:32:13;;;;;;;;;;;-0.50;99.90;;;;;;5033211;28;19909;-68
2022/12/11 11:34:38;;;;;;;;;;;-0.50;99.90;;;;;;5033492;28;19909;-68
2022/12/11 11:37:04;;;;;;;;;;;-0.40;99.90;;;;;;5035548;28;20388;-68
2022/12/11 11:39:34;;;;;;;;;;;-0.50;99.90;;;;;;5034911;28;19987;-68
2022/12/11 11:42:02;;;;;;;;;;;-0.50;99.90;;;;;;5036187;28;20327;-68
2022/12/11 11:44:34;;;;;;;;;;;-0.40;99.90;;;;;;5036963;28;19956;-68
2022/12/11 11:47:02;;;;;;;;;;;-0.40;99.90;;;;;;5029102;28;19913;-68
2022/12/11 11:49:49;;;;;;;;;;;-0.30;99.90;;;;;;5036691;28;20025;-68
2022/12/11 11:52:18;;;;;;;;;;;-0.40;99.90;;;;;;5038083;28;19909;-68
2022/12/11 11:54:59;;;;;;;;;;;-0.40;99.90;;;;;;5036913;28;19913;-68
2022/12/11 11:57:33;;;;;;;;;;;-0.30;99.90;;;;;;5036659;28;19913;-68
2022/12/11 12:00:08;;;;;;;;;;;-0.30;99.90;;;;;;5036594;28;19916;-69
2022/12/11 12:02:34;;;;;;;;;;;-0.30;99.90;;;;;;5036408;28;19910;-68
2022/12/11 12:05:01;;;;;;;;;;;-0.40;99.90;;;;;;5045223;23;19919;-82
2022/12/11 12:07:32;;;;;;;;;;;-0.40;99.90;;;;;;5074598;28;20398;-81
2022/12/11 12:10:08;;;;;;;;;;;-0.30;99.90;;;;;;5061799;28;20387;-81
2022/12/11 12:12:37;;;;;;;;;;;-0.30;99.90;;;;;;5074463;28;19916;-81
2022/12/11 12:15:21;;;;;;;;;;;-0.30;99.90;;;;;;5080968;28;19908;-81
2022/12/11 12:17:54;;;;;;;;;;;-0.30;99.90;;;;;;5078351;28;19916;-82
2022/12/11 12:20:19;;;;;;;;;;;-0.20;99.90;;;;;;5076355;28;19984;-81
2022/12/11 12:22:48;;;;;;;;;;;-0.20;99.90;;;;;;5078700;28;19951;-81
2022/12/11 12:25:22;;;;;;;;;;;-0.20;99.90;;;;;;5080197;28;20342;-81
2022/12/11 12:27:48;;;;;;;;;;;-0.10;99.90;;;;;;5070929;28;20338;-81
2022/12/11 12:30:15;;;;;;;;;;;-0.10;99.90;;;;;;5058278;28;19915;-81
2022/12/11 12:32:50;;;;;;;;;;;-0.10;99.90;;;;;;5071645;28;19979;-82
2022/12/11 12:35:29;;;;;;;;;;;-0.10;99.90;;;;;;5078445;28;19916;-82
2022/12/11 12:38:03;;;;;;;;;;;-0.10;99.90;;;;;;5077285;28;20010;-82
2022/12/11 12:40:42;;;;;;;;;;;0.00;99.90;;;;;;5076852;28;20050;-82
2022/12/11 12:43:13;;;;;;;;;;;0.00;99.90;;;;;;5058815;28;20009;-82
2022/12/11 12:45:46;;;;;;;;;;;0.00;99.90;;;;;;5058227;28;19916;-82
2022/12/11 12:48:11;;;;;;;;;;;0.00;99.90;;;;;;5058137;28;19909;-82
2022/12/11 12:50:42;;;;;;;;;;;0.00;99.90;;;;;;5057196;28;19919;-82
2022/12/11 12:53:12;;;;;;;;;;;0.00;99.90;;;;;;5056374;28;19999;-82
2022/12/11 12:55:38;;;;;;;;;;;0.00;99.90;;;;;;5076285;28;20345;-82
2022/12/11 12:58:05;;;;;;;;;;;-0.10;99.90;;;;;;5065832;28;19956;-81
2022/12/11 13:00:33;;;;;;;;;;;-0.20;99.90;;;;;;5055319;28;19909;-82
2022/12/11 13:03:25;;;;;;;;;;;-0.30;99.90;;;;;;5057041;28;20377;-81
2022/12/11 13:05:54;;;;;;;;;;;-0.40;99.90;;;;;;5055551;28;19917;-81
2022/12/11 13:08:23;;;;;;;;;;;-0.50;99.90;;;;;;5066204;28;19948;-81
2022/12/11 13:10:57;;;;;;;;;;;-0.50;99.90;;;;;;5069790;28;19947;-81
2022/12/11 13:13:40;;;;;;;;;;;-0.50;99.90;;;;;;5074464;28;19908;-81
2022/12/11 13:16:07;;;;;;;;;;;-0.50;99.90;;;;;;5075892;28;20307;-81
2022/12/11 13:18:34;;;;;;;;;;;-0.50;99.90;;;;;;5074800;28;19913;-82
2022/12/11 13:21:00;;;;;;;;;;;-0.50;99.90;;;;;;5074851;28;19909;-82
2022/12/11 13:23:28;;;;;;;;;;;-0.40;99.90;;;;;;5058364;28;19915;-82
2022/12/11 13:25:58;;;;;;;;;;;-0.40;99.90;;;;;;5070423;28;19916;-81
2022/12/11 13:28:32;;;;;;;;;;;-0.40;99.90;;;;;;5072893;28;20387;-81
2022/12/11 13:31:06;;;;;;;;;;;-0.40;99.90;;;;;;5075885;28;19912;-81
2022/12/11 13:33:36;;;;;;;;;;;-0.40;99.90;;;;;;5074856;28;19915;-81
2022/12/11 13:36:22;;;;;;;;;;;-0.40;99.90;;;;;;5073110;28;20003;-81
2022/12/11 13:38:50;;;;;;;;;;;-0.50;99.90;;;;;;5069959;28;19935;-81
2022/12/11 13:41:17;;;;;;;;;;;-0.40;99.90;;;;;;5073462;28;19953;-81
2022/12/11 13:43:45;;;;;;;;;;;-0.50;99.90;;;;;;5073386;28;19909;-81
2022/12/11 13:46:12;;;;;;;;;;;-0.50;99.90;;;;;;5070766;28;20364;-82
2022/12/11 13:49:07;;;;;;;;;;;-0.50;99.90;;;;;;5071884;28;20364;-82
2022/12/11 13:51:36;;;;;;;;;;;-0.60;99.90;;;;;;5075391;28;19916;-82
2022/12/11 13:54:04;;;;;;;;;;;-0.70;99.90;;;;;;5070819;28;20401;-83
2022/12/11 13:56:29;;;;;;;;;;;-0.70;99.90;;;;;;5053632;28;19975;-82
2022/12/11 13:58:55;;;;;;;;;;;-0.70;99.90;;;;;;5053814;28;19912;-82
2022/12/11 14:01:23;;;;;;;;;;;-0.70;99.90;;;;;;5036530;28;19913;-82
2022/12/11 14:03:49;;;;;;;;;;;-0.70;99.90;;;;;;5053302;28;19909;-82
2022/12/11 14:06:17;;;;;;;;;;;-0.70;99.90;;;;;;5053278;28;19943;-82
2022/12/11 14:08:43;;;;;;;;;;;-0.80;99.90;;;;;;5054023;28;20016;-82
2022/12/11 14:11:16;;;;;;;;;;;-0.80;99.90;;;;;;5053270;28;20031;-82
2022/12/11 14:13:43;;;;;;;;;;;-0.80;99.90;;;;;;5053265;28;20011;-82
2022/12/11 14:16:18;;;;;;;;;;;-0.90;99.90;;;;;;5054424;28;19966;-82
2022/12/11 14:18:47;;;;;;;;;;;-0.90;99.90;;;;;;5053143;28;20275;-84
2022/12/11 14:21:17;;;;;;;;;;;-0.90;99.90;;;;;;5073283;23;19932;-68
2022/12/11 14:23:49;;;;;;;;;;;-1.00;99.90;;;;;;5073873;28;20267;-68
2022/12/11 14:26:16;;;;;;;;;;;-1.00;99.90;;;;;;5074099;28;19916;-67
2022/12/11 14:28:42;;;;;;;;;;;-1.10;99.90;;;;;;5073791;28;19909;-67
2022/12/11 14:31:08;;;;;;;;;;;-1.20;99.90;;;;;;5073831;28;19935;-67
2022/12/11 14:33:36;;;;;;;;;;;-1.20;99.90;;;;;;5074240;28;19915;-67